Time;durP1;ratioP1;P1;durP2;ratioP2;P2;SDS_P1;SDS_P2;PMS_P1;PMS_P2;Temp;Humidity;BMP_temperature;BMP_pressure;BME280_temperature;BME280_humidity;BME280_pressure;Samples;Min_cycle;Max_cycle;Signal;HPM_P1;HPM_P2
2021/12/05 00:19:15;;;;;;;48.58;26.62;;;;;;;-0.94;82.62;99001.10;1705527;84;21047;-70
2021/12/05 00:21:41;;;;;;;52.20;26.15;;;;;;;-0.94;82.63;98999.32;1732584;82;21190;-70
2021/12/05 00:24:05;;;;;;;52.73;24.18;;;;;;;-0.91;82.63;98996.91;1704872;84;21507;-70
2021/12/05 00:26:30;;;;;;;69.35;28.55;;;;;;;-0.90;82.66;98996.80;1735207;82;21013;-70
2021/12/05 00:31:57;;;;;;;62.03;28.85;;;;;;;-0.86;82.64;98995.57;1693523;82;21061;-70
2021/12/05 00:34:36;;;;;;;63.80;29.82;;;;;;;-0.85;82.65;98992.48;1704664;84;21211;-70
2021/12/05 00:43:05;;;;;;;52.50;25.10;;;;;;;-0.77;82.66;98990.84;1735394;82;20990;-70
2021/12/05 00:50:43;;;;;;;58.70;27.02;;;;;;;-0.66;82.65;98988.59;1677450;85;21045;-70
2021/12/05 01:00:47;;;;;;;46.15;23.22;;;;;;;-0.57;82.67;99004.34;1677979;85;21595;-70
2021/12/05 01:06:16;;;;;;;44.23;21.90;;;;;;;-0.54;82.66;99009.31;1677408;85;21145;-70
2021/12/05 01:08:39;;;;;;;43.00;21.93;;;;;;;-0.52;82.69;99011.30;1674580;85;21001;-70
2021/12/05 01:13:43;;;;;;;43.05;21.73;;;;;;;-0.51;82.73;99015.59;1677737;85;21088;-70
2021/12/05 01:16:08;;;;;;;45.63;21.30;;;;;;;-0.49;82.71;99015.94;1677499;85;21005;-70
2021/12/05 01:18:35;;;;;;;42.08;22.42;;;;;;;-0.49;82.71;99008.09;1723272;82;21025;-70
2021/12/05 01:21:08;;;;;;;38.23;21.93;;;;;;;-0.51;82.71;99005.11;1706173;83;21014;-70
2021/12/05 01:26:30;;;;;;;42.17;21.42;;;;;;;-0.51;82.70;98997.26;1705994;84;21474;-69
2021/12/05 01:29:16;;;;;;;39.23;20.10;;;;;;;-0.51;82.72;98994.64;1705814;83;21021;-70
2021/12/05 01:31:48;;;;;;;41.98;21.87;;;;;;;-0.49;82.72;99001.54;1703490;83;21060;-70
2021/12/05 01:37:06;;;;;;;45.73;22.62;;;;;;;-0.50;82.73;98991.55;1706043;84;21553;-70
2021/12/05 01:39:36;;;;;;;79.77;40.78;;;;;;;-0.49;82.73;98986.63;1703436;83;21699;-70
2021/12/05 01:47:46;;;;;;;46.20;23.15;;;;;;;-0.47;82.73;98991.75;1677723;85;21101;-70
2021/12/05 01:50:18;;;;;;;41.13;21.70;;;;;;;-0.46;82.75;98995.55;1674200;84;21541;-70
2021/12/05 02:33:43;;;;;;;34.23;18.62;;;;;;;-0.29;82.77;98983.58;1712885;83;21091;-70
2021/12/05 02:39:28;;;;;;;33.90;18.40;;;;;;;-0.29;82.77;98984.41;1711490;83;21466;-69
2021/12/05 02:41:12;;;;;;;38.73;18.87;;;;;;;-0.27;82.78;98988.19;1728616;82;20998;-69
2021/12/05 02:43:44;;;;;;;43.78;21.27;;;;;;;-0.26;82.79;98992.47;1713089;83;21477;-70
2021/12/05 02:46:09;;;;;;;44.50;22.22;;;;;;;-0.25;82.78;98988.90;1713054;83;22341;-69
2021/12/05 02:48:36;;;;;;;46.83;22.20;;;;;;;-0.22;82.79;98991.23;1714016;82;21076;-70
2021/12/05 02:51:08;;;;;;;46.37;22.45;;;;;;;-0.20;82.79;98994.54;1713664;83;21021;-70
2021/12/05 02:53:49;;;;;;;45.15;22.10;;;;;;;-0.20;82.78;98995.37;1713820;83;20985;-70
2021/12/05 02:56:13;;;;;;;39.95;22.05;;;;;;;-0.18;82.80;99000.01;1712842;82;21036;-70
2021/12/05 02:58:47;;;;;;;44.38;22.75;;;;;;;-0.17;82.81;98999.50;1713805;83;21181;-70
2021/12/05 03:01:23;;;;;;;49.00;24.40;;;;;;;-0.17;82.81;99006.05;1712368;83;21005;-70
2021/12/05 03:03:48;;;;;;;51.75;26.62;;;;;;;-0.15;82.83;99001.52;1713692;83;21036;-70
2021/12/05 03:06:21;;;;;;;46.68;25.75;;;;;;;-0.14;82.81;99010.53;1713548;83;21056;-70
2021/12/05 03:08:48;;;;;;;50.67;24.72;;;;;;;-0.14;82.82;99012.35;1689301;83;21077;-70
2021/12/05 03:11:14;;;;;;;52.75;25.90;;;;;;;-0.15;82.82;99016.76;1712617;82;21200;-70
2021/12/05 03:13:40;;;;;;;46.37;23.83;;;;;;;-0.13;82.83;99021.36;1685352;83;21045;-70
2021/12/05 03:16:07;;;;;;;45.78;21.50;;;;;;;-0.14;82.85;99023.63;1699387;83;21517;-70
2021/12/05 03:18:33;;;;;;;53.23;26.73;;;;;;;-0.14;82.83;99014.97;1728243;82;21506;-70
2021/12/05 03:21:01;;;;;;;63.40;29.05;;;;;;;-0.16;82.82;99019.50;1713621;83;20898;-70
2021/12/05 03:23:27;;;;;;;76.12;32.48;;;;;;;-0.16;82.84;99027.36;1711549;83;21120;-71
2021/12/05 03:25:53;;;;;;;59.18;28.23;;;;;;;-0.19;82.85;99027.63;1713665;82;21179;-70
2021/12/05 03:28:19;;;;;;;55.58;25.10;;;;;;;-0.19;82.85;99028.47;1713765;83;20989;-70
2021/12/05 03:30:45;;;;;;;44.55;23.30;;;;;;;-0.17;82.87;99034.39;1711656;83;20960;-70
2021/12/05 03:33:11;;;;;;;45.92;21.80;;;;;;;-0.17;82.87;99041.41;1713580;83;20902;-70
2021/12/05 03:35:37;;;;;;;41.63;22.17;;;;;;;-0.17;82.89;99034.86;1713779;83;21135;-70
2021/12/05 03:38:03;;;;;;;43.85;22.98;;;;;;;-0.17;82.91;99041.41;1713665;83;20850;-70
2021/12/05 03:40:30;;;;;;;43.33;22.25;;;;;;;-0.19;82.92;99038.11;1713620;82;21793;-70
2021/12/05 03:42:56;;;;;;;37.58;20.50;;;;;;;-0.17;82.94;99038.31;1713814;82;21482;-70
2021/12/05 03:45:27;;;;;;;40.78;21.42;;;;;;;-0.19;82.94;99032.87;1696691;82;21025;-70
2021/12/05 03:47:56;;;;;;;38.02;19.60;;;;;;;-0.21;82.94;99043.98;1685988;83;21145;-70
2021/12/05 03:50:21;;;;;;;35.28;19.40;;;;;;;-0.23;82.96;99039.34;1713734;83;21005;-70
2021/12/05 03:52:49;;;;;;;34.13;19.77;;;;;;;-0.24;82.98;99043.75;1713696;83;21521;-70
2021/12/05 03:55:15;;;;;;;32.98;17.80;;;;;;;-0.27;82.96;99041.41;1710403;82;21013;-70
2021/12/05 03:57:41;;;;;;;34.10;17.60;;;;;;;-0.28;82.99;99042.86;1705832;84;21137;-70
2021/12/05 04:00:23;;;;;;;32.03;18.10;;;;;;;-0.30;82.98;99039.53;1705827;84;21134;-70
2021/12/05 04:02:49;;;;;;;35.23;19.55;;;;;;;-0.32;83.02;99037.55;1682856;84;21021;-70
2021/12/05 04:05:16;;;;;;;38.08;19.45;;;;;;;-0.32;83.05;99037.06;1677633;85;21494;-70
2021/12/05 04:07:42;;;;;;;38.48;20.92;;;;;;;-0.30;83.05;99039.53;1677654;84;21021;-70
2021/12/05 04:10:08;;;;;;;37.98;20.88;;;;;;;-0.31;83.06;99041.80;1678109;85;21022;-70
2021/12/05 04:12:34;;;;;;;36.60;20.05;;;;;;;-0.31;83.09;99039.18;1677651;85;21157;-70
2021/12/05 04:15:00;;;;;;;35.38;20.60;;;;;;;-0.32;83.11;99038.85;1677690;84;21056;-70
2021/12/05 04:17:26;;;;;;;36.13;19.05;;;;;;;-0.32;83.11;99041.00;1678877;84;21068;-70
2021/12/05 04:19:52;;;;;;;35.38;20.65;;;;;;;-0.30;83.14;99046.08;1705827;84;20902;-70
2021/12/05 04:22:18;;;;;;;35.68;20.85;;;;;;;-0.31;83.17;99047.87;1706035;83;21493;-70
2021/12/05 04:24:45;;;;;;;34.98;19.42;;;;;;;-0.32;83.20;99048.02;1706172;83;21207;-70
2021/12/05 04:27:11;;;;;;;35.05;19.27;;;;;;;-0.32;83.20;99046.23;1706473;84;20990;-70
2021/12/05 04:29:37;;;;;;;35.10;18.98;;;;;;;-0.31;83.23;99049.66;1705847;84;20897;-70
2021/12/05 04:32:04;;;;;;;35.50;18.90;;;;;;;-0.32;83.24;99049.33;1706195;84;21540;-70
2021/12/05 04:34:30;;;;;;;31.30;18.35;;;;;;;-0.33;83.27;99045.05;1705633;84;21002;-70
2021/12/05 04:36:56;;;;;;;35.73;19.05;;;;;;;-0.34;83.27;99047.31;1705769;83;21206;-70
2021/12/05 04:39:24;;;;;;;32.60;19.30;;;;;;;-0.34;83.28;99047.31;1678301;84;20878;-70
2021/12/05 04:41:50;;;;;;;30.50;17.92;;;;;;;-0.36;83.31;99044.01;1677747;85;21065;-70
2021/12/05 04:44:16;;;;;;;30.35;18.07;;;;;;;-0.36;83.35;99044.01;1657679;85;21052;-70
2021/12/05 04:46:42;;;;;;;42.90;21.48;;;;;;;-0.38;83.36;99034.13;1677751;85;21500;-70
2021/12/05 04:49:08;;;;;;;36.75;20.88;;;;;;;-0.38;83.39;99049.37;1677788;85;21047;-70
2021/12/05 04:51:39;;;;;;;39.98;21.48;;;;;;;-0.37;83.43;99060.67;1701623;84;21006;-70
2021/12/05 04:54:05;;;;;;;39.05;20.65;;;;;;;-0.37;83.44;99047.58;1706092;83;21014;-70
2021/12/05 04:56:31;;;;;;;39.63;22.02;;;;;;;-0.36;83.47;99046.63;1706018;83;21010;-69
2021/12/05 04:58:57;;;;;;;35.70;20.15;;;;;;;-0.36;83.47;99052.70;1706164;84;21016;-70
2021/12/05 05:01:23;;;;;;;41.80;21.27;;;;;;;-0.36;83.50;99051.87;1706076;84;21200;-70
2021/12/05 05:03:50;;;;;;;32.88;19.55;;;;;;;-0.36;83.52;99046.63;1706169;84;21005;-70
2021/12/05 05:06:18;;;;;;;33.10;19.23;;;;;;;-0.35;83.53;99058.77;1696235;82;21017;-70
2021/12/05 05:08:47;;;;;;;30.82;18.55;;;;;;;-0.35;83.55;99047.78;1677671;85;21001;-70
2021/12/05 05:11:15;;;;;;;22.27;13.35;;;;;;;-0.34;83.58;99055.16;1676503;85;21027;-70
2021/12/05 05:13:41;;;;;;;33.18;18.45;;;;;;;-0.35;83.61;99060.88;1677753;85;21172;-70
2021/12/05 05:16:08;;;;;;;33.25;20.23;;;;;;;-0.35;83.62;99062.70;1677923;85;21008;-70
2021/12/05 05:18:44;;;;;;;32.58;19.90;;;;;;;-0.36;83.65;99063.17;1677868;85;21069;-70
2021/12/05 05:21:15;;;;;;;33.45;19.12;;;;;;;-0.38;83.67;99065.08;1676159;84;21069;-70
2021/12/05 05:24:02;;;;;;;35.23;19.45;;;;;;;-0.36;83.69;99070.20;1676919;85;21482;-70
2021/12/05 05:50:16;;;;;;;34.55;20.00;;;;;;;-0.31;83.93;99081.91;1677594;84;21093;-69
2021/12/05 05:52:42;;;;;;;35.63;20.27;;;;;;;-0.30;83.95;99082.27;1677774;85;21149;-70
2021/12/05 05:55:09;;;;;;;32.45;19.90;;;;;;;-0.29;83.95;99084.41;1677857;84;20890;-70
2021/12/05 05:57:46;;;;;;;36.10;20.75;;;;;;;-0.28;83.97;99080.84;1685198;83;20993;-70
2021/12/05 06:00:15;;;;;;;38.95;21.48;;;;;;;-0.29;84.00;99087.03;1683369;83;21446;-70
2021/12/05 06:05:26;;;;;;;28.90;17.70;;;;;;;-0.29;84.02;99097.51;1685032;85;21117;-70
2021/12/05 06:07:53;;;;;;;30.95;19.25;;;;;;;-0.28;84.05;99096.56;1685187;83;21013;-70
2021/12/05 06:10:25;;;;;;;35.17;19.80;;;;;;;-0.27;84.08;99096.88;1685192;85;21548;-69
2021/12/05 06:12:51;;;;;;;33.65;19.80;;;;;;;-0.27;84.09;99103.43;1687140;83;21057;-70
2021/12/05 06:15:18;;;;;;;35.43;21.30;;;;;;;-0.28;84.08;99107.84;1685387;83;21073;-70
2021/12/05 06:17:44;;;;;;;33.40;20.62;;;;;;;-0.28;84.11;99107.84;1689083;83;21050;-70
2021/12/05 06:20:13;;;;;;;37.65;21.02;;;;;;;-0.27;84.12;99106.05;1734272;82;21089;-70
2021/12/05 06:22:39;;;;;;;32.73;20.17;;;;;;;-0.26;84.16;99109.03;1740731;81;21506;-70
2021/12/05 06:25:07;;;;;;;33.05;19.65;;;;;;;-0.24;84.18;99112.33;1733178;82;20888;-70
2021/12/05 06:27:34;;;;;;;35.80;21.27;;;;;;;-0.25;84.19;99114.63;1713870;82;21015;-70
2021/12/05 06:30:11;;;;;;;33.02;18.60;;;;;;;-0.26;84.20;99116.41;1711970;83;21905;-70
2021/12/05 06:38:10;;;;;;;33.38;20.17;;;;;;;-0.26;84.24;99133.44;1729364;82;21114;-70
2021/12/05 06:41:02;;;;;;;32.83;19.40;;;;;;;-0.25;84.27;99134.27;1711712;83;21479;-70
2021/12/05 06:46:47;;;;;;;42.80;27.00;;;;;;;-0.23;84.31;99131.02;1708160;81;21528;-70
2021/12/05 06:48:23;;;;;;;46.75;29.37;;;;;;;-0.22;84.32;99140.07;1717210;81;21053;-70
2021/12/05 06:50:49;;;;;;;39.78;24.15;;;;;;;-0.22;84.33;99142.69;1741456;82;20907;-70
2021/12/05 06:53:15;;;;;;;42.90;26.55;;;;;;;-0.22;84.34;99143.16;1741453;81;20998;-70
2021/12/05 06:55:41;;;;;;;50.25;30.95;;;;;;;-0.21;84.38;99150.07;1740197;82;21143;-70
2021/12/05 06:58:07;;;;;;;48.05;29.07;;;;;;;-0.20;84.40;99149.09;1741099;82;20942;-70
2021/12/05 07:00:33;;;;;;;54.13;33.40;;;;;;;-0.20;84.40;99154.33;1713956;83;20996;-70
2021/12/05 07:02:59;;;;;;;48.68;28.50;;;;;;;-0.20;84.42;99159.56;1713465;83;21009;-70
2021/12/05 07:08:10;;;;;;;40.03;23.27;;;;;;;-0.17;84.47;99154.05;1685186;85;21501;-70
2021/12/05 07:10:50;;;;;;;49.53;25.00;;;;;;;-0.14;84.47;99166.92;1684970;85;20989;-71
2021/12/05 07:16:05;;;;;;;37.15;22.80;;;;;;;-0.13;84.50;99168.55;1713041;83;21001;-70
2021/12/05 07:21:25;;;;;;;35.63;22.58;;;;;;;-0.09;84.54;99172.57;1677255;85;21146;-70
2021/12/05 07:23:47;;;;;;;39.38;24.35;;;;;;;-0.05;84.57;99175.28;1677861;85;21501;-70
2021/12/05 07:26:10;;;;;;;34.92;22.98;;;;;;;-0.04;84.57;99173.02;1710393;83;21013;-70
2021/12/05 07:42:23;;;;;;;48.10;29.20;;;;;;;0.19;84.72;99179.69;1741517;81;21605;-70
2021/12/05 07:44:44;;;;;;;46.65;29.85;;;;;;;0.24;84.74;99180.60;1741014;81;21054;-70
2021/12/05 07:47:10;;;;;;;43.75;28.70;;;;;;;0.24;84.74;99184.06;1730677;82;20965;-70
2021/12/05 07:49:36;;;;;;;66.95;43.60;;;;;;;0.26;84.74;99186.05;1711684;83;21025;-70
2021/12/05 07:52:02;;;;;;;189.50;116.60;;;;;;;0.29;84.78;99188.41;1714806;82;21009;-70
2021/12/05 07:54:40;;;;;;;155.30;97.88;;;;;;;0.39;84.79;99191.86;1741800;81;21003;-70
2021/12/05 07:57:22;;;;;;;304.18;106.47;;;;;;;0.44;84.81;99188.37;1741768;82;21039;-70
2021/12/05 08:00:06;;;;;;;105.25;45.05;;;;;;;0.49;84.85;99184.84;1743035;81;21189;-70
2021/12/05 08:16:05;;;;;;;209.60;102.53;;;;;;;0.65;84.89;99197.43;1715848;83;21007;-70
2021/12/05 08:18:29;;;;;;;72.97;37.75;;;;;;;0.64;84.88;99197.55;1715113;82;21047;-70
2021/12/05 08:20:55;;;;;;;203.60;120.50;;;;;;;0.64;84.90;99203.64;1715686;83;21042;-70
2021/12/05 08:23:23;;;;;;;191.95;114.22;;;;;;;0.66;84.91;99205.66;1741081;82;21019;-70
2021/12/05 08:25:55;;;;;;;63.25;36.80;;;;;;;0.70;84.94;99212.77;1745424;81;21153;-70
